Time;durP1;ratioP1;P1;durP2;ratioP2;P2;SDS_P1;SDS_P2;PMS_P1;PMS_P2;Temp;Humidity;BMP_temperature;BMP_pressure;BME280_temperature;BME280_humidity;BME280_pressure;Samples;Min_cycle;Max_cycle;Signal;HPM_P1;HPM_P2
2022/10/25 00:00:44;;;;;;;20.57;13.72;;;;;;;14.28;92.08;98496.96;1708412;84;27430;-67
2022/10/25 00:03:11;;;;;;;24.05;14.00;;;;;;;14.26;91.85;98499.25;1708553;84;25716;-68
2022/10/25 00:05:40;;;;;;;21.40;13.65;;;;;;;14.23;91.94;98499.37;1708520;84;25730;-67
2022/10/25 00:08:07;;;;;;;22.35;14.65;;;;;;;14.22;92.06;98503.25;1708469;84;25794;-67
2022/10/25 00:10:35;;;;;;;24.25;15.30;;;;;;;14.19;91.90;98510.82;1708533;84;25696;-67
2022/10/25 00:13:02;;;;;;;22.45;14.13;;;;;;;14.11;91.58;98511.73;1708841;84;27400;-67
2022/10/25 00:15:28;;;;;;;21.45;14.13;;;;;;;14.05;91.57;98513.33;1708256;83;25809;-67
2022/10/25 00:17:55;;;;;;;21.68;14.53;;;;;;;13.99;91.76;98525.70;1708958;84;25771;-67
2022/10/25 00:20:21;;;;;;;23.02;14.13;;;;;;;13.99;91.76;98525.70;1708363;84;25797;-68
2022/10/25 00:22:47;;;;;;;20.25;13.10;;;;;;;13.99;91.90;98524.92;1708891;84;25483;-67
2022/10/25 00:25:14;;;;;;;20.08;13.03;;;;;;;13.97;92.02;98534.08;1708783;84;27462;-67
2022/10/25 00:27:40;;;;;;;19.82;11.25;;;;;;;13.95;92.24;98535.80;1732078;82;25570;-68
2022/10/25 00:30:08;;;;;;;17.40;10.45;;;;;;;13.90;92.36;98524.98;1732682;82;25434;-67
2022/10/25 00:32:35;;;;;;;15.63;10.63;;;;;;;13.92;92.51;98518.02;1732417;82;26692;-68
2022/10/25 00:35:03;;;;;;;14.28;9.93;;;;;;;13.92;92.51;98518.02;1732505;82;25585;-67
2022/10/25 00:37:29;;;;;;;14.18;9.85;;;;;;;13.82;92.60;98507.42;1732470;82;28423;-67
2022/10/25 00:39:55;;;;;;;15.20;10.32;;;;;;;13.87;92.41;98511.33;1732175;82;25659;-66
2022/10/25 00:42:26;;;;;;;15.23;10.10;;;;;;;13.87;92.41;98511.33;1732324;82;25469;-66
2022/10/25 00:44:56;;;;;;;;;;;;;;;13.85;92.56;98503.18;1735014;82;26486;-66
2022/10/25 00:47:33;;;;;;;14.73;10.08;;;;;;;13.83;92.33;98505.45;1732802;82;25697;-66
2022/10/25 00:50:20;;;;;;;15.58;10.32;;;;;;;13.77;92.41;98514.52;1732269;82;27412;-66
2022/10/25 00:52:51;;;;;;;13.88;9.65;;;;;;;13.77;92.41;98514.52;1732664;82;25669;-67
2022/10/25 00:55:20;;;;;;;13.35;9.53;;;;;;;13.73;92.89;98508.86;1732167;82;25668;-67
2022/10/25 00:57:54;;;;;;;15.40;10.15;;;;;;;13.72;92.70;98510.02;1732394;82;25685;-66
2022/10/25 01:00:21;;;;;;;13.68;10.00;;;;;;;13.68;92.68;98504.96;1732479;82;25421;-66
2022/10/25 01:02:48;;;;;;;13.72;9.15;;;;;;;13.73;92.58;98514.37;1732170;82;27399;-67
2022/10/25 01:05:16;;;;;;;16.40;9.23;;;;;;;13.73;92.88;98517.13;1732440;82;25440;-66
2022/10/25 01:07:43;;;;;;;17.23;9.60;;;;;;;13.71;92.74;98512.55;1732429;82;25484;-66
2022/10/25 01:10:10;;;;;;;13.90;8.83;;;;;;;13.71;92.69;98510.36;1732323;82;25707;-66
2022/10/25 01:12:36;;;;;;;14.00;9.10;;;;;;;13.70;92.98;98511.51;1732230;82;25617;-66
2022/10/25 01:15:05;;;;;;;13.08;9.40;;;;;;;13.65;92.69;98505.05;1736937;82;27641;-66
2022/10/25 01:17:52;;;;;;;13.93;10.08;;;;;;;13.60;92.72;98505.27;1740232;82;25661;-66
2022/10/25 01:20:48;;;;;;;13.48;9.70;;;;;;;13.55;92.96;98511.79;1739949;81;25599;-66
2022/10/25 01:23:44;;;;;;;14.35;10.13;;;;;;;13.50;93.14;98507.86;1739587;82;25753;-66
2022/10/25 01:26:34;;;;;;;14.43;9.73;;;;;;;13.46;93.12;98512.97;1701007;84;25532;-68
2022/10/25 01:29:45;;;;;;;15.30;9.85;;;;;;;13.45;93.24;98513.55;1633563;87;27394;-67
2022/10/25 01:32:32;;;;;;;18.20;10.65;;;;;;;13.40;93.24;98504.11;1633705;87;25712;-67
2022/10/25 01:35:22;;;;;;;14.70;10.55;;;;;;;13.40;93.33;98509.06;1633646;87;25575;-67
2022/10/25 01:38:15;;;;;;;15.40;10.50;;;;;;;13.39;93.29;98510.77;1634094;87;26602;-68
2022/10/25 01:40:50;;;;;;;14.83;9.63;;;;;;;13.38;93.43;98508.58;1633955;87;25693;-67
2022/10/25 01:43:33;;;;;;;17.23;10.00;;;;;;;13.35;93.37;98505.68;1634136;87;28270;-68
2022/10/25 01:46:16;;;;;;;13.58;9.53;;;;;;;13.34;93.42;98498.02;1634145;87;25764;-68
2022/10/25 01:48:50;;;;;;;13.45;9.78;;;;;;;13.33;93.52;98490.91;1633581;87;25579;-68
2022/10/25 01:51:17;;;;;;;12.90;9.30;;;;;;;13.31;93.59;98493.18;1634025;87;25695;-67
2022/10/25 01:53:50;;;;;;;15.85;9.43;;;;;;;13.29;93.57;98499.02;1634121;87;25561;-68
2022/10/25 01:56:33;;;;;;;13.40;8.23;;;;;;;13.27;93.40;98508.17;1634056;87;28424;-66
2022/10/25 01:59:08;;;;;;;14.07;9.45;;;;;;;13.25;93.51;98508.28;1633664;87;25742;-65
2022/10/25 02:02:13;;;;;;;13.25;8.73;;;;;;;13.23;93.53;98501.73;1610906;89;25756;-65
2022/10/25 02:04:44;;;;;;;14.00;9.45;;;;;;;13.23;93.71;98506.42;1615036;84;25776;-65
2022/10/25 02:07:16;;;;;;;14.58;8.10;;;;;;;13.21;93.62;98508.14;1739884;82;25423;-65
2022/10/25 02:10:00;;;;;;;12.43;7.67;;;;;;;13.19;93.77;98507.69;1740707;80;27361;-66
2022/10/25 02:13:13;;;;;;;10.48;6.92;;;;;;;13.15;94.19;98506.72;1739886;82;25445;-66
2022/10/25 02:15:44;;;;;;;15.00;8.55;;;;;;;13.15;94.19;98506.72;1712257;82;25690;-65
2022/10/25 02:18:15;;;;;;;13.00;8.25;;;;;;;13.12;93.73;98508.20;1709519;83;25738;-67
2022/10/25 02:20:45;;;;;;;13.03;7.67;;;;;;;13.10;93.54;98509.10;1709825;83;25444;-67
2022/10/25 02:23:14;;;;;;;11.38;7.50;;;;;;;13.06;93.92;98502.66;1708338;83;27396;-67
2022/10/25 02:25:42;;;;;;;12.88;6.97;;;;;;;13.05;94.34;98501.88;1684442;83;25450;-67
2022/10/25 02:28:11;;;;;;;12.13;8.28;;;;;;;13.00;94.62;98504.00;1709848;83;25649;-67
2022/10/25 02:30:41;;;;;;;12.70;8.38;;;;;;;12.98;94.22;98501.58;1709086;83;26534;-67
2022/10/25 02:33:08;;;;;;;13.60;8.07;;;;;;;12.98;94.18;98506.30;1709720;83;25443;-67
2022/10/25 02:35:35;;;;;;;12.65;8.10;;;;;;;12.96;94.28;98511.31;1709318;83;28025;-67
2022/10/25 02:38:01;;;;;;;14.63;8.63;;;;;;;12.96;94.24;98515.44;1708560;83;25680;-67
2022/10/25 02:40:28;;;;;;;13.62;7.62;;;;;;;12.93;94.22;98513.58;1709727;83;25722;-67
2022/10/25 02:42:55;;;;;;;12.30;8.30;;;;;;;12.92;94.66;98507.85;1708277;83;25689;-67
2022/10/25 02:45:22;;;;;;;12.63;7.55;;;;;;;12.90;94.25;98508.75;1709129;83;25661;-67
2022/10/25 02:47:49;;;;;;;11.53;8.28;;;;;;;12.88;94.52;98506.92;1709713;83;27354;-67
2022/10/25 02:50:16;;;;;;;12.60;8.08;;;;;;;12.86;94.19;98506.44;1708134;83;25722;-67
2022/10/25 02:52:43;;;;;;;12.37;7.90;;;;;;;12.86;94.27;98509.19;1707164;83;25776;-67
2022/10/25 02:55:10;;;;;;;14.13;8.60;;;;;;;12.84;94.60;98499.08;1708423;83;26174;-67
2022/10/25 02:57:37;;;;;;;14.45;8.38;;;;;;;12.83;94.21;98504.34;1707937;83;25737;-67
2022/10/25 03:00:06;;;;;;;12.63;8.05;;;;;;;12.85;94.12;98515.02;1710015;83;27500;-67
2022/10/25 03:02:33;;;;;;;13.48;8.00;;;;;;;12.80;94.19;98507.20;1708317;83;25503;-67
2022/10/25 03:04:59;;;;;;;12.60;7.58;;;;;;;12.79;94.14;98509.73;1708386;83;25433;-67
2022/10/25 03:07:25;;;;;;;11.50;7.75;;;;;;;12.78;94.17;98508.69;1709788;83;26560;-67
2022/10/25 03:09:51;;;;;;;14.98;7.83;;;;;;;12.78;94.17;98508.69;1709919;83;25622;-67
2022/10/25 03:12:17;;;;;;;14.10;7.03;;;;;;;12.75;94.28;98506.59;1709556;83;27383;-67
2022/10/25 03:14:44;;;;;;;9.78;7.33;;;;;;;12.73;94.77;98509.67;1712760;82;25511;-67
2022/10/25 03:17:10;;;;;;;11.15;7.90;;;;;;;12.66;94.81;98507.44;1734273;82;25467;-68
2022/10/25 03:19:36;;;;;;;10.30;7.60;;;;;;;12.71;94.78;98520.75;1734322;82;25756;-64
2022/10/25 03:22:03;;;;;;;11.95;7.67;;;;;;;12.70;94.78;98524.64;1734352;82;25632;-65
2022/10/25 03:24:28;;;;;;;10.20;7.33;;;;;;;12.67;94.79;98526.12;1734277;82;27618;-64
2022/10/25 03:26:55;;;;;;;11.50;7.05;;;;;;;12.67;94.79;98526.12;1734469;82;25672;-63
2022/10/25 03:29:22;;;;;;;11.57;8.18;;;;;;;12.65;95.15;98529.20;1734429;82;25419;-67
2022/10/25 03:31:48;;;;;;;11.78;7.92;;;;;;;12.65;95.03;98530.58;1733508;82;25796;-65
2022/10/25 03:34:14;;;;;;;12.40;7.95;;;;;;;12.66;94.93;98533.55;1734281;82;25605;-64
2022/10/25 03:36:40;;;;;;;14.25;7.87;;;;;;;12.68;95.08;98531.84;1734524;82;27492;-65
2022/10/25 03:39:12;;;;;;;12.43;7.85;;;;;;;12.72;94.99;98542.41;1734129;82;25641;-64
2022/10/25 03:41:50;;;;;;;11.68;7.53;;;;;;;12.76;94.97;98535.70;1734303;82;25617;-67
2022/10/25 03:44:23;;;;;;;13.32;8.48;;;;;;;12.76;95.01;98532.38;1734278;82;25685;-68
2022/10/25 03:47:02;;;;;;;11.25;7.47;;;;;;;12.80;94.89;98534.70;1734538;82;25415;-66
2022/10/25 03:49:32;;;;;;;11.68;7.25;;;;;;;12.81;95.03;98535.48;1734106;82;27361;-67
2022/10/25 03:52:01;;;;;;;10.72;7.65;;;;;;;12.87;95.18;98537.50;1733806;82;25454;-68
2022/10/25 03:54:28;;;;;;;12.30;7.28;;;;;;;12.87;95.18;98537.50;1734386;82;25669;-68
2022/10/25 03:56:53;;;;;;;10.82;6.80;;;;;;;12.84;95.26;98536.20;1734570;82;25741;-64
2022/10/25 03:59:20;;;;;;;10.93;6.83;;;;;;;12.84;95.26;98536.20;1734643;82;25651;-65
2022/10/25 04:01:46;;;;;;;10.00;6.45;;;;;;;12.92;95.19;98544.98;1734376;82;27635;-64
2022/10/25 04:04:12;;;;;;;12.25;7.62;;;;;;;12.94;95.14;98540.52;1734187;82;25530;-64
2022/10/25 04:06:38;;;;;;;9.95;6.83;;;;;;;12.97;95.05;98541.80;1733761;82;25628;-64
2022/10/25 04:09:09;;;;;;;10.23;7.22;;;;;;;12.98;95.22;98535.97;1733445;82;25771;-64
2022/10/25 04:11:35;;;;;;;9.23;6.08;;;;;;;13.00;94.91;98537.00;1733888;82;25731;-64
2022/10/25 04:14:01;;;;;;;10.28;6.47;;;;;;;13.01;95.16;98541.39;1734098;82;27648;-65
2022/10/25 04:16:27;;;;;;;11.83;6.75;;;;;;;13.04;94.90;98537.97;1714496;82;25319;-64
2022/10/25 04:18:54;;;;;;;9.98;6.72;;;;;;;13.05;94.86;98536.83;1707857;83;25657;-64
2022/10/25 04:21:21;;;;;;;11.75;7.17;;;;;;;13.05;94.81;98532.70;1708587;83;25766;-67
2022/10/25 04:23:48;;;;;;;10.43;6.58;;;;;;;13.04;94.84;98538.76;1708014;83;25595;-68
2022/10/25 04:26:17;;;;;;;12.98;7.08;;;;;;;13.09;94.65;98542.45;1708897;83;27513;-68
2022/10/25 04:28:49;;;;;;;14.60;6.87;;;;;;;13.12;94.50;98541.78;1709363;83;25807;-68
2022/10/25 04:31:16;;;;;;;14.20;6.87;;;;;;;13.11;94.49;98534.12;1709262;83;25804;-68
2022/10/25 04:33:43;;;;;;;9.48;6.60;;;;;;;13.10;94.58;98534.45;1697932;83;27056;-68
2022/10/25 04:36:09;;;;;;;10.68;6.70;;;;;;;13.11;94.37;98536.05;1698486;84;25609;-68
2022/10/25 04:38:36;;;;;;;10.10;6.33;;;;;;;13.12;94.20;98527.47;1698840;84;27925;-68
2022/10/25 04:41:10;;;;;;;11.97;6.87;;;;;;;13.13;94.08;98526.91;1698744;84;25704;-67
2022/10/25 04:43:36;;;;;;;9.85;6.40;;;;;;;13.13;93.99;98520.03;1698906;83;25650;-68
2022/10/25 04:46:02;;;;;;;9.08;6.47;;;;;;;13.11;94.05;98526.42;1706323;83;25938;-66
2022/10/25 04:48:29;;;;;;;10.05;6.67;;;;;;;13.08;94.02;98522.41;1706383;83;25682;-67
2022/10/25 04:51:00;;;;;;;9.23;6.42;;;;;;;13.08;93.93;98525.71;1692144;83;27452;-66
2022/10/25 04:53:26;;;;;;;;;;;;;;;13.05;93.78;98515.63;1702306;84;25485;-66
2022/10/25 04:56:03;;;;;;;9.73;6.37;;;;;;;13.03;93.83;98517.91;1684772;84;25687;-64
2022/10/25 04:58:29;;;;;;;10.00;6.47;;;;;;;13.02;93.87;98523.17;1695248;83;25926;-68
2022/10/25 05:01:03;;;;;;;12.98;6.75;;;;;;;13.01;93.85;98524.30;1701487;83;25747;-67
2022/10/25 05:03:30;;;;;;;10.23;6.17;;;;;;;13.03;93.92;98527.53;1701224;84;27540;-66
2022/10/25 05:06:13;;;;;;;12.70;7.35;;;;;;;13.05;94.02;98527.20;1683176;84;25528;-67
2022/10/25 05:08:44;;;;;;;15.28;9.55;;;;;;;13.08;94.09;98529.84;1703334;84;25499;-67
2022/10/25 05:11:12;;;;;;;11.93;7.25;;;;;;;13.09;93.86;98532.26;1701001;84;25658;-67
2022/10/25 05:13:40;;;;;;;9.28;6.95;;;;;;;13.13;93.84;98535.95;1702891;83;25459;-66
2022/10/25 05:16:10;;;;;;;9.98;6.87;;;;;;;13.14;93.80;98536.77;1704133;83;27366;-66
2022/10/25 05:18:37;;;;;;;12.47;7.15;;;;;;;13.14;93.71;98536.20;1687335;83;43120;-67
2022/10/25 05:21:05;;;;;;;9.43;6.58;;;;;;;13.12;93.58;98539.03;1687046;83;25501;-67
2022/10/25 05:23:33;;;;;;;9.93;6.28;;;;;;;13.09;93.61;98538.32;1693415;83;26495;-68
2022/10/25 05:26:13;;;;;;;15.30;7.33;;;;;;;13.04;93.78;98537.38;1685150;83;26528;-68
2022/10/25 05:28:41;;;;;;;12.68;7.12;;;;;;;13.01;93.84;98542.77;1681570;85;27379;-68
2022/10/25 05:31:20;;;;;;;12.15;7.72;;;;;;;12.97;93.89;98538.48;1685894;84;25695;-66
2022/10/25 05:33:50;;;;;;;10.70;7.15;;;;;;;12.99;93.76;98536.22;1686423;84;25623;-66
2022/10/25 05:36:17;;;;;;;14.60;9.43;;;;;;;12.95;93.76;98535.84;1686469;84;25849;-67
2022/10/25 05:38:43;;;;;;;11.80;8.48;;;;;;;12.92;93.69;98538.11;1686349;84;25677;-67
2022/10/25 05:41:12;;;;;;;12.13;8.20;;;;;;;12.99;93.77;98551.91;1685209;84;27450;-67
2022/10/25 05:43:39;;;;;;;12.78;8.63;;;;;;;12.99;93.73;98556.84;1686278;84;25718;-66
2022/10/25 05:46:13;;;;;;;12.00;8.05;;;;;;;13.00;93.69;98554.88;1686527;84;25452;-67
2022/10/25 05:48:40;;;;;;;13.72;8.15;;;;;;;13.02;93.76;98554.81;1686151;84;25698;-68
2022/10/25 05:51:19;;;;;;;11.83;7.55;;;;;;;13.04;93.76;98561.36;1686501;84;25485;-68
2022/10/25 05:53:54;;;;;;;9.23;6.22;;;;;;;13.04;93.64;98564.11;1685886;84;27537;-68
2022/10/25 05:56:23;;;;;;;9.13;6.87;;;;;;;13.05;93.78;98562.95;1686012;84;25743;-68
2022/10/25 05:58:51;;;;;;;11.88;7.30;;;;;;;13.10;93.75;98567.47;1686056;84;25720;-68
2022/10/25 06:01:20;;;;;;;11.25;7.97;;;;;;;13.13;93.65;98565.42;1686288;84;25724;-67
2022/10/25 06:03:52;;;;;;;12.43;7.22;;;;;;;13.16;93.57;98565.55;1686655;84;25498;-68
2022/10/25 06:06:19;;;;;;;14.65;7.97;;;;;;;13.27;93.59;98565.17;1686309;84;28202;-67
2022/10/25 06:08:46;;;;;;;12.45;8.40;;;;;;;13.29;93.23;98578.83;1685965;84;25675;-67
2022/10/25 06:11:17;;;;;;;8.80;7.12;;;;;;;13.32;93.10;98586.98;1686511;84;25634;-66
2022/10/25 06:13:43;;;;;;;10.43;6.53;;;;;;;13.36;93.24;98597.55;1686545;85;32791;-67
2022/10/25 06:16:13;;;;;;;13.58;7.58;;;;;;;13.36;93.02;98601.67;1694675;82;25625;-68
2022/10/25 06:18:40;;;;;;;9.45;6.42;;;;;;;13.36;93.11;98596.77;1707941;83;27444;-67
2022/10/25 06:21:17;;;;;;;11.63;8.45;;;;;;;13.31;92.96;98600.52;1709163;84;25685;-67
2022/10/25 06:23:44;;;;;;;12.47;7.15;;;;;;;13.29;92.89;98598.09;1707617;83;25520;-66
2022/10/25 06:26:16;;;;;;;11.48;6.95;;;;;;;13.30;92.80;98614.83;1709252;83;25754;-67
2022/10/25 06:28:42;;;;;;;10.98;7.42;;;;;;;13.29;92.65;98614.61;1709910;83;25481;-67
2022/10/25 06:31:12;;;;;;;10.95;7.40;;;;;;;13.28;92.60;98622.64;1705670;83;27283;-68
2022/10/25 06:33:38;;;;;;;12.05;7.25;;;;;;;13.32;92.64;98626.89;1709427;83;25682;-67
2022/10/25 06:36:09;;;;;;;11.03;7.58;;;;;;;13.32;92.68;98633.77;1706446;83;25474;-68
2022/10/25 06:38:35;;;;;;;9.48;6.97;;;;;;;13.33;92.54;98636.77;1709040;83;26154;-67
2022/10/25 06:41:04;;;;;;;11.63;7.83;;;;;;;13.31;92.17;98641.80;1709559;83;25716;-67
2022/10/25 06:43:33;;;;;;;10.25;6.75;;;;;;;13.31;92.27;98643.17;1708275;83;28436;-68
2022/10/25 06:46:06;;;;;;;11.00;6.70;;;;;;;13.30;92.16;98640.19;1708071;83;25609;-68
2022/10/25 06:48:32;;;;;;;10.10;7.08;;;;;;;13.27;92.16;98642.23;1709040;83;25480;-67
2022/10/25 06:51:10;;;;;;;14.28;7.17;;;;;;;13.25;92.20;98637.06;1708937;83;27867;-67
2022/10/25 06:53:37;;;;;;;14.53;8.08;;;;;;;13.25;92.02;98630.73;1709552;83;25603;-67
2022/10/25 06:56:06;;;;;;;15.43;7.67;;;;;;;13.27;92.12;98636.14;1709953;83;28214;-68
2022/10/25 06:58:34;;;;;;;16.00;7.97;;;;;;;13.29;92.10;98642.13;1709744;83;25293;-67
2022/10/25 07:01:07;;;;;;;10.95;7.05;;;;;;;13.29;91.92;98635.25;1708559;83;25677;-68
2022/10/25 07:03:34;;;;;;;14.10;8.38;;;;;;;13.32;91.84;98643.98;1708476;83;25687;-68
2022/10/25 07:06:05;;;;;;;12.43;7.58;;;;;;;13.28;91.91;98638.33;1709063;83;25393;-67
2022/10/25 07:08:37;;;;;;;;;;;;;;;13.30;91.74;98646.48;1711954;83;28170;-67
2022/10/25 07:11:05;;;;;;;14.10;7.28;;;;;;;13.29;91.66;98650.38;1709473;83;25468;-68
2022/10/25 07:13:33;;;;;;;15.72;8.80;;;;;;;13.30;91.99;98649.23;1709545;83;25762;-68
2022/10/25 07:16:08;;;;;;;10.93;7.65;;;;;;;13.34;91.78;98657.64;1709560;83;26528;-68
2022/10/25 07:18:35;;;;;;;10.95;7.53;;;;;;;13.37;91.85;98651.47;1708569;83;25610;-68
2022/10/25 07:21:09;;;;;;;13.05;6.40;;;;;;;13.39;91.38;98651.14;1708994;83;28269;-68
2022/10/25 07:23:40;;;;;;;12.43;8.33;;;;;;;13.39;91.35;98656.64;1708312;83;25865;-67
2022/10/25 07:26:04;;;;;;;13.90;7.70;;;;;;;13.29;91.44;98644.87;1705375;83;25627;-66
2022/10/25 07:28:30;;;;;;;13.20;8.75;;;;;;;13.23;91.89;98639.33;1709308;83;25915;-66
2022/10/25 07:30:57;;;;;;;13.55;7.20;;;;;;;13.23;91.89;98639.33;1709563;83;25484;-64
2022/10/25 07:33:23;;;;;;;14.15;8.30;;;;;;;13.16;92.02;98641.21;1709489;83;27799;-63
2022/10/25 07:35:50;;;;;;;11.43;7.15;;;;;;;13.16;92.07;98645.33;1708464;83;25686;-65
2022/10/25 07:38:17;;;;;;;14.50;9.00;;;;;;;13.11;92.14;98634.53;1708570;83;25607;-67
2022/10/25 07:40:43;;;;;;;13.75;8.95;;;;;;;13.16;92.09;98651.42;1709574;83;25764;-66
2022/10/25 07:43:10;;;;;;;16.10;9.58;;;;;;;13.17;92.60;98661.28;1705699;83;25502;-65
2022/10/25 07:45:38;;;;;;;14.98;9.68;;;;;;;13.19;92.31;98671.41;1709757;83;27599;-65
2022/10/25 07:48:05;;;;;;;12.98;8.75;;;;;;;13.21;92.25;98674.61;1708638;83;25798;-66
2022/10/25 07:50:31;;;;;;;14.58;9.43;;;;;;;13.18;92.42;98692.59;1709014;83;25674;-66
2022/10/25 07:52:58;;;;;;;16.27;9.70;;;;;;;13.18;92.42;98692.59;1709577;83;25948;-67
2022/10/25 07:55:24;;;;;;;14.15;9.13;;;;;;;13.19;92.72;98692.04;1709694;83;25441;-74
2022/10/25 07:57:51;;;;;;;10.35;7.55;;;;;;;13.18;92.96;98680.77;1709115;83;27603;-72
2022/10/25 08:00:18;;;;;;;13.45;8.13;;;;;;;13.15;92.84;98675.93;1709037;83;25593;-70
2022/10/25 08:02:44;;;;;;;9.95;7.20;;;;;;;13.12;93.00;98669.71;1709206;83;25593;-70
2022/10/25 08:05:10;;;;;;;12.03;7.78;;;;;;;13.08;93.20;98656.39;1709423;83;25780;-71
2022/10/25 08:07:37;;;;;;;9.53;7.15;;;;;;;13.05;93.05;98659.24;1709303;83;25608;-71
2022/10/25 08:10:04;;;;;;;11.15;7.42;;;;;;;13.08;93.31;98661.33;1708891;83;27450;-70
2022/10/25 08:12:31;;;;;;;11.30;7.90;;;;;;;13.11;93.65;98668.92;1709349;83;25770;-71
2022/10/25 08:14:57;;;;;;;9.85;6.35;;;;;;;13.16;93.98;98672.06;1708830;83;25761;-70
2022/10/25 08:17:24;;;;;;;14.83;8.10;;;;;;;13.17;94.29;98675.86;1707869;83;25764;-70
2022/10/25 08:19:50;;;;;;;9.50;7.15;;;;;;;13.24;95.00;98686.33;1708217;83;25884;-70
2022/10/25 08:22:17;;;;;;;11.83;7.42;;;;;;;13.40;95.29;98676.95;1706736;83;27419;-70
2022/10/25 08:24:43;;;;;;;12.98;8.38;;;;;;;13.62;95.29;98673.68;1709402;83;25615;-70
2022/10/25 08:27:10;;;;;;;10.80;7.65;;;;;;;13.86;94.81;98670.05;1709378;83;25741;-69
2022/10/25 08:29:36;;;;;;;11.15;8.10;;;;;;;13.94;93.51;98667.81;1707309;83;25779;-69
2022/10/25 08:32:02;;;;;;;10.88;8.48;;;;;;;14.45;95.30;98672.96;1709067;83;25951;-68
2022/10/25 08:34:29;;;;;;;10.32;8.03;;;;;;;14.45;95.30;98672.96;1709245;83;27373;-68
2022/10/25 08:36:55;;;;;;;10.70;7.53;;;;;;;14.96;95.00;98678.27;1708324;83;27210;-67
2022/10/25 08:39:24;;;;;;;12.28;8.20;;;;;;;15.46;92.90;98683.02;1699404;83;25700;-66
2022/10/25 08:41:55;;;;;;;12.35;7.03;;;;;;;15.75;90.73;98677.00;1707330;83;26032;-67
2022/10/25 08:44:44;;;;;;;9.88;6.70;;;;;;;16.00;89.94;98683.29;1708833;83;25479;-69
2022/10/25 08:47:26;;;;;;;10.43;6.50;;;;;;;15.99;87.92;98683.07;1708064;83;29587;-67
2022/10/25 08:50:02;;;;;;;9.53;6.50;;;;;;;15.97;87.65;98688.13;1709507;83;25461;-68
2022/10/25 08:52:46;;;;;;;10.03;6.95;;;;;;;15.92;88.13;98683.63;1706835;83;25441;-69
2022/10/25 08:55:20;;;;;;;10.00;7.00;;;;;;;15.93;89.52;98676.15;1707567;83;26362;-70
2022/10/25 08:57:49;;;;;;;12.90;7.65;;;;;;;15.88;88.82;98676.38;1706820;83;25480;-71
2022/10/25 09:00:21;;;;;;;10.72;7.30;;;;;;;15.85;88.72;98667.41;1707886;83;28391;-72
2022/10/25 09:03:01;;;;;;;9.40;6.87;;;;;;;15.82;88.78;98671.68;1707642;83;25691;-72
2022/10/25 09:05:42;;;;;;;10.82;6.83;;;;;;;15.75;88.69;98663.97;1708068;83;25684;-72
2022/10/25 09:08:32;;;;;;;10.23;7.28;;;;;;;15.75;88.95;98666.73;1707902;83;25779;-71
2022/10/25 09:11:22;;;;;;;10.83;6.90;;;;;;;15.77;89.25;98667.20;1695297;84;25715;-70
2022/10/25 09:14:08;;;;;;;13.10;7.83;;;;;;;15.85;89.03;98664.08;1701069;83;27557;-70
2022/10/25 09:16:49;;;;;;;11.40;7.80;;;;;;;15.89;87.99;98662.81;1708163;83;25441;-70
2022/10/25 09:19:34;;;;;;;10.30;7.65;;;;;;;15.90;88.29;98663.84;1713305;83;25679;-69
2022/10/25 09:22:05;;;;;;;9.85;7.70;;;;;;;16.07;88.90;98664.73;1708639;83;25828;-69
2022/10/25 09:24:43;;;;;;;12.78;7.72;;;;;;;16.39;88.54;98655.73;1703268;84;25510;-69
2022/10/25 09:27:23;;;;;;;9.40;7.22;;;;;;;16.83;87.73;98669.31;1705962;84;27465;-69
2022/10/25 09:30:04;;;;;;;10.82;7.67;;;;;;;17.34;86.95;98666.44;1705823;84;25607;-68
2022/10/25 09:32:56;;;;;;;10.75;7.50;;;;;;;17.84;85.15;98660.44;1706257;84;25488;-69
2022/10/25 09:35:47;;;;;;;8.78;6.28;;;;;;;18.20;83.61;98667.33;1706226;83;25732;-69
2022/10/25 09:38:31;;;;;;;10.08;7.53;;;;;;;18.62;80.52;98664.38;1706124;84;25668;-69
2022/10/25 09:41:05;;;;;;;10.08;7.70;;;;;;;18.93;80.58;98675.84;1701311;84;27400;-70
2022/10/25 09:43:58;;;;;;;10.35;7.40;;;;;;;19.30;81.30;98673.67;1706399;84;25771;-70
2022/10/25 09:46:35;;;;;;;8.78;6.97;;;;;;;19.67;79.01;98674.44;1706198;83;25634;-70
2022/10/25 09:49:45;;;;;;;9.40;7.45;;;;;;;19.90;77.40;98671.36;1706358;84;25857;-70
2022/10/25 09:52:28;;;;;;;7.97;6.03;;;;;;;20.21;76.76;98674.16;1682012;84;25810;-70
2022/10/25 09:55:12;;;;;;;7.37;6.05;;;;;;;20.45;75.66;98671.45;1681462;85;27369;-69
2022/10/25 09:57:40;;;;;;;6.22;5.40;;;;;;;20.74;74.16;98680.69;1681432;85;25879;-69
2022/10/25 10:00:12;;;;;;;7.87;6.70;;;;;;;20.81;72.17;98682.14;1681538;85;25733;-68
2022/10/25 10:02:40;;;;;;;7.70;5.83;;;;;;;20.79;72.18;98683.14;1681789;85;27038;-68
2022/10/25 10:05:16;;;;;;;7.28;5.75;;;;;;;20.71;72.82;98684.23;1681767;85;25706;-68
2022/10/25 10:07:45;;;;;;;7.78;5.60;;;;;;;20.44;72.46;98690.13;1681584;85;27441;-66
2022/10/25 10:10:25;;;;;;;7.78;6.00;;;;;;;20.16;73.30;98696.97;1681525;85;25576;-66
2022/10/25 10:13:00;;;;;;;6.80;5.72;;;;;;;20.14;73.81;98699.31;1681963;85;25673;-67
2022/10/25 10:15:40;;;;;;;8.35;6.28;;;;;;;20.39;73.39;98691.88;1681611;85;25743;-66
2022/10/25 10:18:32;;;;;;;7.70;5.75;;;;;;;20.72;73.64;98677.51;1686077;84;25709;-67
2022/10/25 10:21:13;;;;;;;8.08;5.62;;;;;;;21.05;72.72;98680.84;1691577;84;29496;-67
2022/10/25 10:23:56;;;;;;;7.30;5.47;;;;;;;21.34;71.08;98685.02;1691684;84;25653;-63
2022/10/25 10:26:35;;;;;;;7.75;5.10;;;;;;;21.46;69.44;98676.94;1691581;84;25638;-64
2022/10/25 10:29:10;;;;;;;7.62;5.40;;;;;;;21.65;68.84;98673.88;1707249;83;26565;-65
2022/10/25 10:31:41;;;;;;;9.13;5.97;;;;;;;21.74;68.89;98674.14;1717436;83;25626;-64
2022/10/25 10:34:32;;;;;;;6.47;5.28;;;;;;;21.74;68.43;98675.54;1717600;83;27452;-64
2022/10/25 10:37:14;;;;;;;5.28;4.30;;;;;;;21.94;68.97;98676.86;1717451;82;25704;-65
2022/10/25 10:39:54;;;;;;;7.05;4.90;;;;;;;22.29;64.55;98673.83;1717169;83;25646;-66
2022/10/25 10:42:37;;;;;;;6.67;4.75;;;;;;;22.28;65.67;98674.42;1714943;82;26386;-65
2022/10/25 10:45:11;;;;;;;7.92;5.08;;;;;;;22.36;65.77;98676.64;1717518;83;25602;-66
2022/10/25 10:47:52;;;;;;;5.92;4.60;;;;;;;22.52;66.13;98676.30;1717192;83;27473;-65
2022/10/25 10:50:31;;;;;;;6.92;4.50;;;;;;;22.71;63.39;98670.17;1717033;83;25615;-65
2022/10/25 10:53:05;;;;;;;5.83;4.50;;;;;;;22.52;62.26;98669.91;1717300;83;25496;-66
2022/10/25 10:55:42;;;;;;;5.67;4.30;;;;;;;22.68;62.22;98665.38;1717239;83;25953;-66
2022/10/25 10:58:31;;;;;;;5.33;4.22;;;;;;;22.84;62.04;98662.22;1714633;83;25456;-65
2022/10/25 11:01:08;;;;;;;5.37;4.15;;;;;;;23.12;61.44;98658.44;1717435;82;27432;-66
2022/10/25 11:03:45;;;;;;;8.45;4.55;;;;;;;23.19;59.54;98662.63;1717465;83;25822;-65
2022/10/25 11:06:29;;;;;;;4.60;4.03;;;;;;;23.10;61.14;98663.62;1717654;83;25594;-65
2022/10/25 11:09:22;;;;;;;6.50;4.40;;;;;;;23.29;60.21;98658.23;1717584;83;26388;-65
2022/10/25 11:12:11;;;;;;;4.85;3.83;;;;;;;23.42;59.68;98658.05;1717193;83;25646;-64
2022/10/25 11:14:38;;;;;;;6.00;3.95;;;;;;;23.69;57.74;98656.81;1717502;83;27546;-64
2022/10/25 11:17:18;;;;;;;4.12;3.70;;;;;;;23.86;58.42;98657.16;1717016;82;25712;-64
2022/10/25 11:19:56;;;;;;;4.22;3.83;;;;;;;23.97;59.40;98659.30;1706411;84;25699;-64
2022/10/25 11:22:59;;;;;;;5.22;4.08;;;;;;;24.07;57.95;98657.69;1704853;84;25708;-64
2022/10/25 11:25:37;;;;;;;4.85;4.10;;;;;;;24.25;58.22;98666.03;1706246;84;25604;-64
2022/10/25 11:28:28;;;;;;;7.25;4.03;;;;;;;24.95;56.71;98654.44;1704487;84;28373;-64
2022/10/25 11:31:32;;;;;;;5.12;3.92;;;;;;;25.31;55.75;98668.15;1705549;84;25606;-62
2022/10/25 11:34:40;;;;;;;4.78;3.62;;;;;;;25.72;53.77;98666.57;1706249;84;25627;-63
2022/10/25 11:37:17;;;;;;;3.60;2.90;;;;;;;25.74;53.75;98659.14;1702131;84;25900;-62
2022/10/25 11:40:06;;;;;;;4.70;3.30;;;;;;;25.67;50.87;98647.38;1706539;84;25689;-62
2022/10/25 11:43:00;;;;;;;4.55;2.87;;;;;;;25.73;53.27;98651.94;1705436;84;27455;-63
2022/10/25 11:45:47;;;;;;;3.20;2.72;;;;;;;25.83;52.59;98658.63;1705346;84;25838;-63
2022/10/25 11:48:42;;;;;;;2.95;2.50;;;;;;;25.48;50.81;98653.77;1706486;84;25765;-63
2022/10/25 11:51:36;;;;;;;3.70;1.98;;;;;;;25.49;50.18;98648.34;1706558;84;25689;-64
2022/10/25 11:54:07;;;;;;;1.98;1.62;;;;;;;25.66;49.19;98650.00;1706331;84;25430;-65